createdAt,value
2019-05-01T00:02:05.885Z,80.91
2019-05-01T00:05:06.203Z,81.13
2019-05-01T00:07:36.978Z,80.88
2019-05-01T00:10:07.148Z,81.13
2019-05-01T00:12:37.489Z,80.63
2019-05-01T00:15:06.958Z,81.19
2019-05-01T00:17:36.890Z,80.75
2019-05-01T00:20:06.371Z,80.55
2019-05-01T00:22:35.643Z,80.48
2019-05-01T00:25:05.211Z,80.90
2019-05-01T00:27:35.735Z,80.53
2019-05-01T00:30:07.150Z,79.76
2019-05-01T00:32:38.066Z,79.33
2019-05-01T00:35:07.400Z,80.21
2019-05-01T00:37:36.739Z,79.51
2019-05-01T00:40:06.184Z,79.29
2019-05-01T00:42:35.392Z,78.90
2019-05-01T00:45:04.738Z,79.50
2019-05-01T00:47:34.102Z,78.37
2019-05-01T00:50:03.378Z,78.24
2019-05-01T00:52:32.622Z,78.11
2019-05-01T00:55:19.734Z,79.52
2019-05-01T00:57:58.490Z,79.75
2019-05-01T01:00:45.980Z,79.28
2019-05-01T01:03:15.182Z,79.79
2019-05-01T01:05:44.352Z,79.97
2019-05-01T01:08:13.557Z,80.46
2019-05-01T01:10:42.743Z,80.19
2019-05-01T01:13:11.970Z,79.85
2019-05-01T01:15:41.137Z,79.79
2019-05-01T01:18:10.399Z,79.66
2019-05-01T01:20:39.611Z,79.28
2019-05-01T01:23:08.762Z,79.38
2019-05-01T01:25:37.919Z,79.60
2019-05-01T01:28:07.125Z,79.90
2019-05-01T01:30:36.283Z,79.35
2019-05-01T01:33:05.446Z,79.69
2019-05-01T01:35:34.640Z,79.40
2019-05-01T01:38:03.896Z,79.92
2019-05-01T01:40:33.332Z,80.73
2019-05-01T01:43:22.790Z,80.83
2019-05-01T01:45:54.869Z,80.45
2019-05-01T01:48:24.136Z,80.22
2019-05-01T01:50:53.450Z,79.84
2019-05-01T01:53:22.906Z,80.24
2019-05-01T01:55:52.158Z,79.86
2019-05-01T01:58:22.306Z,80.14
2019-05-01T02:01:19.555Z,79.51
2019-05-01T02:03:53.238Z,80.47
2019-05-01T02:06:22.420Z,80.54
2019-05-01T02:08:56.664Z,80.49
2019-05-01T02:11:22.642Z,80.62
2019-05-01T02:13:55.843Z,79.98
2019-05-01T02:16:25.465Z,80.73
2019-05-01T02:18:55.183Z,80.48
2019-05-01T02:21:24.390Z,80.17
2019-05-01T02:23:53.619Z,79.57
2019-05-01T02:26:24.584Z,79.53
2019-05-01T02:29:04.603Z,80.45
2019-05-01T02:31:39.701Z,80.81
2019-05-01T02:34:09.246Z,80.69
2019-05-01T02:36:38.577Z,80.65
2019-05-01T02:39:10.055Z,79.58
2019-05-01T02:41:41.914Z,80.56
2019-05-01T02:44:22.794Z,79.93
2019-05-01T02:46:52.756Z,79.73
2019-05-01T02:49:45.787Z,78.61
2019-05-01T02:52:15.376Z,79.46
2019-05-01T02:54:46.560Z,79.16
2019-05-01T02:57:18.091Z,78.83
2019-05-01T02:59:49.844Z,78.73
2019-05-01T03:02:19.994Z,78.55
2019-05-01T03:04:49.758Z,78.32
2019-05-01T03:07:19.157Z,78.77
2019-05-01T03:09:48.319Z,78.98
2019-05-01T03:12:19.032Z,79.10
2019-05-01T03:14:49.687Z,78.79
2019-05-01T03:17:36.744Z,78.94
2019-05-01T03:20:21.679Z,78.92
2019-05-01T03:23:10.414Z,78.34
2019-05-01T03:25:39.768Z,77.94
2019-05-01T03:28:09.103Z,79.25
2019-05-01T03:30:38.395Z,79.27
2019-05-01T03:33:07.549Z,78.20
2019-05-01T03:35:36.752Z,77.83
2019-05-01T03:38:05.906Z,78.15
2019-05-01T03:40:35.095Z,78.94
2019-05-01T03:43:04.493Z,79.04
2019-05-01T03:45:34.445Z,78.80
2019-05-01T03:48:04.283Z,79.15
2019-05-01T03:50:33.581Z,79.53
2019-05-01T03:53:03.169Z,79.17
2019-05-01T03:55:32.524Z,79.40
2019-05-01T03:58:02.239Z,79.16
2019-05-01T04:00:44.258Z,79.38
2019-05-01T04:03:26.605Z,78.85
2019-05-01T04:05:55.861Z,77.79
2019-05-01T04:08:25.876Z,79.07
2019-05-01T04:10:55.692Z,79.60
2019-05-01T04:13:25.027Z,78.21
2019-05-01T04:15:54.630Z,77.53
2019-05-01T04:18:24.407Z,76.89
2019-05-01T04:20:53.602Z,77.12
2019-05-01T04:23:22.910Z,77.37
2019-05-01T04:25:52.180Z,76.49
2019-05-01T04:28:49.713Z,76.69
2019-05-01T04:31:36.604Z,76.28
2019-05-01T04:34:15.018Z,76.82
2019-05-01T04:36:47.419Z,77.71
2019-05-01T04:39:16.612Z,77.58
2019-05-01T04:41:45.917Z,77.66
2019-05-01T04:44:15.288Z,77.89
2019-05-01T04:46:44.444Z,77.27
2019-05-01T04:49:13.580Z,77.45
2019-05-01T04:51:42.883Z,77.77
2019-05-01T04:54:12.078Z,76.66
2019-05-01T04:56:41.328Z,75.60
2019-05-01T04:59:10.666Z,74.54
2019-05-01T05:01:57.999Z,74.86
2019-05-01T05:04:28.199Z,74.85
2019-05-01T05:06:57.453Z,74.75
2019-05-01T05:09:46.607Z,75.12
2019-05-01T05:12:23.107Z,75.26
2019-05-01T05:14:56.064Z,74.70
2019-05-01T05:17:25.375Z,73.97
2019-05-01T05:19:54.568Z,73.84
2019-05-01T05:22:24.016Z,73.17
2019-05-01T05:24:53.962Z,73.51
2019-05-01T05:27:24.760Z,73.19
2019-05-01T05:29:57.281Z,73.39
2019-05-01T05:32:27.509Z,73.97
2019-05-01T05:34:58.176Z,75.60
2019-05-01T05:37:32.429Z,75.66
2019-05-01T05:40:03.111Z,76.14
2019-05-01T05:42:32.501Z,74.96
2019-05-01T05:45:01.826Z,74.09
2019-05-01T05:47:31.015Z,73.86
2019-05-01T05:50:00.225Z,73.88
2019-05-01T05:52:41.425Z,73.98
2019-05-01T05:55:16.422Z,74.04
2019-05-01T05:58:16.697Z,74.13
2019-05-01T06:01:16.751Z,74.36
2019-05-01T06:04:25.759Z,75.19
2019-05-01T06:07:16.460Z,75.73
2019-05-01T06:09:52.898Z,73.60
2019-05-01T06:12:46.246Z,72.62
2019-05-01T06:15:31.438Z,73.34
2019-05-01T06:18:08.180Z,73.36
2019-05-01T06:20:44.261Z,72.76
2019-05-01T06:23:34.414Z,72.13
2019-05-01T06:26:23.248Z,70.74
2019-05-01T06:28:55.868Z,70.86
2019-05-01T06:31:25.131Z,71.02
2019-05-01T06:33:54.958Z,70.85
2019-05-01T06:36:24.435Z,71.55
2019-05-01T06:38:53.986Z,72.26
2019-05-01T06:41:23.461Z,70.52
2019-05-01T06:44:04.051Z,69.92
2019-05-01T06:46:40.638Z,69.28
2019-05-01T06:49:35.189Z,71.01
2019-05-01T06:52:05.771Z,69.54
2019-05-01T06:54:36.764Z,71.96
2019-05-01T06:57:06.597Z,71.40
2019-05-01T06:59:37.616Z,69.93
2019-05-01T07:02:07.348Z,69.80
2019-05-01T07:04:38.086Z,68.64
2019-05-01T07:07:24.056Z,67.69
2019-05-01T07:09:38.684Z,69.42
2019-05-01T07:12:12.564Z,70.87
2019-05-01T07:14:47.142Z,70.98
2019-05-01T07:17:14.848Z,69.65
2019-05-01T07:20:02.129Z,70.09
2019-05-01T07:22:31.491Z,67.32
2019-05-01T07:25:04.163Z,70.21
2019-05-01T07:27:32.190Z,69.40
2019-05-01T07:30:09.927Z,70.58
2019-05-01T07:32:41.199Z,69.76
2019-05-01T07:35:10.396Z,68.30
2019-05-01T07:37:39.864Z,67.05
2019-05-01T07:40:09.282Z,67.33
2019-05-01T07:42:43.772Z,66.09
2019-05-01T07:45:43.511Z,65.32
2019-05-01T07:48:10.760Z,64.06
2019-05-01T07:50:40.342Z,66.17
2019-05-01T07:53:09.547Z,66.63
2019-05-01T07:55:39.004Z,67.77
2019-05-01T07:58:10.340Z,66.57
2019-05-01T08:01:02.955Z,65.86
2019-05-01T08:03:33.318Z,65.08
2019-05-01T08:06:02.473Z,62.93
2019-05-01T08:08:31.650Z,67.72
2019-05-01T08:11:04.977Z,65.12
2019-05-01T08:13:34.997Z,64.80
2019-05-01T08:16:07.106Z,64.55
2019-05-01T08:18:43.701Z,63.93
2019-05-01T08:21:31.853Z,62.58
2019-05-01T08:24:01.676Z,63.22
2019-05-01T08:26:30.908Z,63.95
2019-05-01T08:29:24.107Z,61.71
2019-05-01T08:32:15.089Z,60.73
2019-05-01T08:34:49.222Z,60.57
2019-05-01T08:37:17.912Z,60.39
2019-05-01T08:39:46.135Z,60.30
2019-05-01T08:42:15.520Z,61.91
2019-05-01T08:44:59.940Z,60.83
2019-05-01T08:47:31.706Z,59.02
2019-05-01T08:50:06.996Z,59.17
2019-05-01T08:52:36.191Z,58.95
2019-05-01T08:55:09.341Z,57.56
2019-05-01T08:57:39.290Z,59.24
2019-05-01T09:00:08.335Z,61.58
2019-05-01T09:02:41.624Z,60.47
2019-05-01T09:05:27.794Z,60.02
2019-05-01T09:07:40.665Z,57.84
2019-05-01T09:10:10.000Z,57.31
2019-05-01T09:12:42.653Z,59.12
2019-05-01T09:15:12.538Z,59.40
2019-05-01T09:17:41.039Z,58.86
2019-05-01T09:20:10.314Z,58.77
2019-05-01T09:22:39.563Z,59.10
2019-05-01T09:25:10.445Z,59.08
2019-05-01T09:27:59.492Z,59.50
2019-05-01T09:30:39.124Z,59.58
2019-05-01T09:33:08.274Z,55.54
2019-05-01T09:35:40.140Z,57.34
2019-05-01T09:38:08.515Z,59.57
2019-05-01T09:40:37.672Z,61.05
2019-05-01T09:43:06.828Z,58.27
2019-05-01T09:45:36.029Z,57.58
2019-05-01T09:48:05.821Z,57.46
2019-05-01T09:50:36.663Z,56.79
2019-05-01T09:53:13.920Z,56.16
2019-05-01T09:56:03.176Z,58.75
2019-05-01T09:58:32.574Z,59.56
2019-05-01T10:01:01.792Z,58.96
2019-05-01T10:03:31.189Z,59.93
2019-05-01T10:06:00.377Z,58.18
2019-05-01T10:08:29.556Z,60.58
2019-05-01T10:10:59.957Z,59.86
2019-05-01T10:13:29.748Z,58.04
2019-05-01T10:15:58.941Z,56.00
2019-05-01T10:18:28.107Z,57.77
2019-05-01T10:20:57.356Z,58.32
2019-05-01T10:23:26.531Z,57.32
2019-05-01T10:25:57.390Z,59.89
2019-05-01T10:28:45.042Z,59.18
2019-05-01T10:31:34.582Z,56.68
2019-05-01T10:34:12.809Z,60.49
2019-05-01T10:36:49.851Z,56.79
2019-05-01T10:39:19.729Z,59.36
2019-05-01T10:41:48.126Z,58.56
2019-05-01T10:44:17.306Z,60.70
2019-05-01T10:46:46.502Z,58.65
2019-05-01T10:49:15.662Z,57.97
2019-05-01T10:51:44.882Z,57.58
2019-05-01T10:54:14.080Z,56.50
2019-05-01T10:56:43.268Z,54.90
2019-05-01T10:59:12.425Z,54.92
2019-05-01T11:01:47.999Z,54.22
2019-05-01T11:04:17.380Z,55.99
2019-05-01T11:06:46.646Z,56.04
2019-05-01T11:09:16.344Z,57.31
2019-05-01T11:11:45.507Z,57.28
2019-05-01T11:14:15.263Z,58.14
2019-05-01T11:16:44.440Z,58.99
2019-05-01T11:19:13.590Z,57.63
2019-05-01T11:21:42.796Z,55.79
2019-05-01T11:24:11.945Z,55.12
2019-05-01T11:26:41.170Z,55.04
2019-05-01T11:29:10.396Z,53.15
2019-05-01T11:31:58.539Z,52.61
2019-05-01T11:34:48.064Z,54.05
2019-05-01T11:37:34.657Z,53.23
2019-05-01T11:40:14.093Z,52.56
2019-05-01T11:42:43.314Z,53.14
2019-05-01T11:45:12.866Z,52.12
2019-05-01T11:47:42.105Z,52.75
2019-05-01T11:50:11.664Z,52.51
2019-05-01T11:52:41.008Z,51.80
2019-05-01T11:55:10.271Z,52.42
2019-05-01T11:57:39.624Z,53.18
2019-05-01T12:00:10.129Z,53.63
2019-05-01T12:02:39.440Z,54.60
2019-05-01T12:05:08.874Z,54.65
2019-05-01T12:07:38.077Z,53.35
2019-05-01T12:10:07.454Z,55.28
2019-05-01T12:12:36.683Z,53.70
2019-05-01T12:15:07.088Z,52.55
